Terminal Aerodrome Forecast
Issued by NWS

Home | Current Version | Previous Version | Text Only | Print | Product List | Glossary On
Versions: 1 2 3 4 5 6 7 8 9 10 11 12 13 14 15 16 17 18
268
FTUS42 KFFC 192339
TAFPDK
TAF
KPDK 192339Z 2000/2024 31012G20KT P6SM SKC
     FM200100 33012KT P6SM SKC
     FM200800 03009KT P6SM SKC
     FM201400 08011KT P6SM SKC
     FM201900 09007KT P6SM SKC=

USA.gov is the U.S. government's official web portal to all federal, state and local government web resources and services.